Time;durP1;ratioP1;P1;durP2;ratioP2;P2;SDS_P1;SDS_P2;PMS_P1;PMS_P2;Temp;Humidity;BMP_temperature;BMP_pressure;BME280_temperature;BME280_humidity;BME280_pressure;Samples;Min_cycle;Max_cycle;Signal;HPM_P1;HPM_P2
2021/08/24 00:02:06;;;;;;;9.05;5.47;;;13.20;99.90;;;;;;4977824;28;20022;-53
2021/08/24 00:04:32;;;;;;;7.63;4.95;;;13.30;99.90;;;;;;4982499;28;20030;-56
2021/08/24 00:06:57;;;;;;;7.65;5.18;;;13.30;99.90;;;;;;4987214;28;20112;-57
2021/08/24 00:09:23;;;;;;;7.55;5.15;;;13.40;99.90;;;;;;4986494;28;20026;-56
2021/08/24 00:11:49;;;;;;;10.07;4.45;;;13.40;99.90;;;;;;4981614;28;20083;-56
2021/08/24 00:14:14;;;;;;;6.15;3.75;;;13.40;99.90;;;;;;4975508;28;20100;-55
2021/08/24 00:16:41;;;;;;;6.20;4.18;;;13.50;99.90;;;;;;4979154;28;20058;-55
2021/08/24 00:19:22;;;;;;;11.40;4.00;;;13.60;99.90;;;;;;4979928;28;20029;-56
2021/08/24 00:21:48;;;;;;;7.47;3.90;;;13.70;99.90;;;;;;4971208;28;20049;-55
2021/08/24 00:24:14;;;;;;;5.32;3.63;;;13.80;99.90;;;;;;4971916;28;20094;-55
2021/08/24 00:26:40;;;;;;;14.50;3.75;;;13.80;99.90;;;;;;4975856;28;20034;-56
2021/08/24 00:29:05;;;;;;;5.25;3.55;;;13.80;99.90;;;;;;4974391;28;20027;-57
2021/08/24 00:31:31;;;;;;;14.27;4.28;;;13.80;99.90;;;;;;4977032;28;20378;-57
2021/08/24 00:33:57;;;;;;;4.75;3.15;;;13.70;99.90;;;;;;4975300;28;20052;-56
2021/08/24 00:36:22;;;;;;;4.97;3.55;;;13.70;99.90;;;;;;4984314;28;20035;-54
2021/08/24 00:38:49;;;;;;;4.20;3.60;;;13.60;99.90;;;;;;4978985;28;20029;-54
2021/08/24 00:41:17;;;;;;;8.50;3.63;;;13.60;99.90;;;;;;4987817;28;20446;-54
2021/08/24 00:43:45;;;;;;;5.53;3.90;;;13.50;99.90;;;;;;4985129;28;20019;-56
2021/08/24 00:46:41;;;;;;;6.90;4.10;;;13.50;99.90;;;;;;4959053;28;20042;-57
2021/08/24 00:49:19;;;;;;;7.05;3.35;;;13.50;99.90;;;;;;4984966;28;20085;-55
2021/08/24 00:51:48;;;;;;;10.95;4.00;;;13.50;99.90;;;;;;4986250;28;20018;-55
2021/08/24 00:54:15;;;;;;;12.20;3.13;;;13.50;99.90;;;;;;4982336;28;20034;-54
2021/08/24 00:56:47;;;;;;;6.88;3.47;;;13.40;99.90;;;;;;4985929;28;20030;-56
2021/08/24 00:59:12;;;;;;;4.90;3.42;;;13.40;99.90;;;;;;4982730;28;20031;-57
2021/08/24 01:01:38;;;;;;;6.93;4.10;;;13.40;99.90;;;;;;4992395;28;20029;-54
2021/08/24 01:04:04;;;;;;;6.78;4.78;;;13.30;99.90;;;;;;4989484;28;20022;-57
2021/08/24 01:07:05;;;;;;;6.97;5.20;;;13.20;99.90;;;;;;4977604;28;20031;-56
2021/08/24 01:09:42;;;;;;;4.88;4.15;;;13.10;99.90;;;;;;4990479;28;20043;-55
2021/08/24 01:12:10;;;;;;;7.80;4.47;;;13.00;99.90;;;;;;4982066;28;20388;-57
2021/08/24 01:14:55;;;;;;;9.73;4.70;;;12.90;99.90;;;;;;4979062;28;20042;-57
2021/08/24 01:17:28;;;;;;;4.95;3.60;;;12.90;99.90;;;;;;4983721;28;20031;-56
2021/08/24 01:20:20;;;;;;;6.50;3.42;;;12.80;99.90;;;;;;4991371;28;20048;-56
2021/08/24 01:23:11;;;;;;;4.78;3.38;;;12.90;99.90;;;;;;4984684;28;20554;-56
2021/08/24 01:25:59;;;;;;;10.15;3.28;;;13.00;99.90;;;;;;4977144;28;20502;-55
2021/08/24 01:28:32;;;;;;;5.18;3.55;;;13.00;99.90;;;;;;4976128;28;20019;-57
2021/08/24 01:31:22;;;;;;;4.13;3.10;;;13.10;99.90;;;;;;4983517;28;20049;-57
2021/08/24 01:34:08;;;;;;;5.05;3.08;;;13.10;99.90;;;;;;4988378;28;20022;-57
2021/08/24 01:36:41;;;;;;;15.43;3.60;;;13.10;99.90;;;;;;4988039;28;20065;-56
2021/08/24 01:39:28;;;;;;;5.22;3.05;;;13.10;99.90;;;;;;4988696;28;20570;-56
2021/08/24 01:42:08;;;;;;;5.40;3.65;;;13.00;99.90;;;;;;4987299;28;20037;-59
2021/08/24 01:44:41;;;;;;;5.13;3.20;;;13.00;99.90;;;;;;4985490;28;20121;-57
2021/08/24 01:47:19;;;;;;;6.45;3.10;;;13.00;99.90;;;;;;4981873;28;20520;-56
2021/08/24 01:49:48;;;;;;;7.65;2.85;;;12.90;99.90;;;;;;4983758;28;20030;-55
2021/08/24 01:52:17;;;;;;;4.95;2.80;;;12.90;99.90;;;;;;4991104;28;20383;-55
2021/08/24 01:55:06;;;;;;;7.85;3.25;;;12.90;99.90;;;;;;4991411;28;20042;-58
2021/08/24 01:57:50;;;;;;;7.22;3.70;;;12.80;99.90;;;;;;4989183;28;20030;-56
2021/08/24 02:00:17;;;;;;;4.45;2.80;;;12.80;99.90;;;;;;4990572;28;20384;-56
2021/08/24 02:02:52;;;;;;;4.82;3.28;;;12.80;99.90;;;;;;4985763;28;20023;-57
2021/08/24 02:05:34;;;;;;;4.38;3.08;;;12.90;99.90;;;;;;4990812;28;20037;-55
2021/08/24 02:08:04;;;;;;;5.60;3.53;;;12.90;99.90;;;;;;4986104;28;20030;-55
2021/08/24 02:10:30;;;;;;;5.90;3.17;;;12.90;99.90;;;;;;4990391;28;20018;-56
2021/08/24 02:12:57;;;;;;;5.28;3.63;;;12.90;99.90;;;;;;4972429;28;20054;-52
2021/08/24 02:15:41;;;;;;;6.47;3.08;;;12.90;99.90;;;;;;4985550;28;20019;-56
2021/08/24 02:18:11;;;;;;;9.70;3.47;;;12.90;99.90;;;;;;4989839;28;20022;-56
2021/08/24 02:20:57;;;;;;;10.27;4.07;;;12.80;99.90;;;;;;4984168;28;20038;-54
2021/08/24 02:23:26;;;;;;;10.30;2.90;;;12.80;99.90;;;;;;4989118;28;20033;-55
2021/08/24 02:25:58;;;;;;;5.57;3.05;;;12.70;99.90;;;;;;4988384;28;20087;-52
2021/08/24 02:28:35;;;;;;;4.72;2.40;;;12.70;99.90;;;;;;4997478;28;20026;-57
2021/08/24 02:31:12;;;;;;;5.40;2.83;;;12.70;99.90;;;;;;4985186;28;20652;-54
2021/08/24 02:34:00;;;;;;;7.63;3.00;;;12.70;99.90;;;;;;4997903;28;20038;-51
2021/08/24 02:36:26;;;;;;;6.78;2.70;;;12.60;99.90;;;;;;4956531;28;20100;-55
2021/08/24 02:39:06;;;;;;;9.65;2.60;;;12.60;99.90;;;;;;4985857;28;20507;-54
2021/08/24 02:42:10;;;;;;;4.65;2.67;;;12.70;99.90;;;;;;4984640;28;20109;-58
2021/08/24 02:44:51;;;;;;;9.18;2.83;;;12.70;99.90;;;;;;4986668;28;20038;-53
2021/08/24 02:47:19;;;;;;;4.57;2.75;;;12.80;99.90;;;;;;4980390;28;20049;-57
2021/08/24 02:49:45;;;;;;;5.15;3.38;;;12.80;99.90;;;;;;4988592;28;20451;-55
2021/08/24 02:52:11;;;;;;;3.63;2.63;;;12.80;99.90;;;;;;4990750;28;20021;-58
2021/08/24 02:54:38;;;;;;;4.20;2.72;;;12.80;99.90;;;;;;4994980;28;20121;-58
2021/08/24 02:57:05;;;;;;;8.13;3.20;;;12.80;99.90;;;;;;4982264;28;20026;-57
2021/08/24 02:59:32;;;;;;;7.13;2.97;;;12.80;99.90;;;;;;4988536;28;20405;-57
2021/08/24 03:01:57;;;;;;;7.00;2.85;;;12.70;99.90;;;;;;4994467;28;20033;-53
2021/08/24 03:04:24;;;;;;;5.68;2.80;;;12.70;99.90;;;;;;4985934;28;20030;-56
2021/08/24 03:06:55;;;;;;;4.18;2.88;;;12.70;99.90;;;;;;4992737;28;20026;-56
2021/08/24 03:09:25;;;;;;;5.68;2.75;;;12.70;99.90;;;;;;4996062;28;20022;-55
2021/08/24 03:12:23;;;;;;;4.63;3.28;;;12.80;99.90;;;;;;4986774;28;20065;-56
2021/08/24 03:14:57;;;;;;;8.32;3.08;;;12.70;99.90;;;;;;4988761;28;20050;-55
2021/08/24 03:17:29;;;;;;;5.68;3.00;;;12.70;99.90;;;;;;4989229;28;20084;-55
2021/08/24 03:19:59;;;;;;;5.78;3.10;;;12.60;99.90;;;;;;4981521;28;20088;-55
2021/08/24 03:22:25;;;;;;;6.32;3.42;;;12.60;99.90;;;;;;4998698;28;20050;-56
2021/08/24 03:24:51;;;;;;;4.35;2.42;;;12.50;99.90;;;;;;4993772;28;20377;-56
2021/08/24 03:27:17;;;;;;;8.52;3.22;;;12.50;99.90;;;;;;4993567;28;20038;-55
2021/08/24 03:29:59;;;;;;;7.07;3.10;;;12.40;99.90;;;;;;4983269;28;20031;-56
2021/08/24 03:32:25;;;;;;;9.05;3.13;;;12.30;99.90;;;;;;4993533;28;20077;-55
2021/08/24 03:34:50;;;;;;;6.55;3.17;;;12.30;99.90;;;;;;4993290;28;20029;-56
2021/08/24 03:37:16;;;;;;;5.53;3.35;;;12.30;99.90;;;;;;4988220;28;20491;-57
2021/08/24 03:39:41;;;;;;;11.20;3.17;;;12.30;99.90;;;;;;4999731;28;20031;-54
2021/08/24 03:42:07;;;;;;;5.32;2.75;;;12.30;99.90;;;;;;4984438;28;20034;-57
2021/08/24 03:44:33;;;;;;;7.45;2.65;;;12.40;99.90;;;;;;4989252;28;20564;-56
2021/08/24 03:46:58;;;;;;;4.72;2.80;;;12.40;99.90;;;;;;4990011;28;20030;-55
2021/08/24 03:49:24;;;;;;;5.70;2.97;;;12.40;99.90;;;;;;4993644;28;20097;-56
2021/08/24 03:51:49;;;;;;;4.57;2.63;;;12.40;99.90;;;;;;4985188;28;20221;-55
2021/08/24 03:54:15;;;;;;;4.50;2.55;;;12.40;99.90;;;;;;4996530;28;20527;-57
2021/08/24 03:56:41;;;;;;;5.13;2.83;;;12.40;99.90;;;;;;4983192;28;20506;-57
2021/08/24 03:59:08;;;;;;;4.50;2.53;;;12.30;99.90;;;;;;4975302;28;20033;-54
2021/08/24 04:01:33;;;;;;;3.70;2.40;;;12.30;99.90;;;;;;4989317;28;20050;-53
2021/08/24 04:03:59;;;;;;;6.82;3.35;;;12.20;99.90;;;;;;4976622;28;20054;-56
2021/08/24 04:06:25;;;;;;;4.97;2.47;;;12.20;99.90;;;;;;4987167;28;20125;-56
2021/08/24 04:08:51;;;;;;;9.23;2.90;;;12.10;99.90;;;;;;4985855;28;20066;-56
2021/08/24 04:11:16;;;;;;;4.80;3.10;;;12.10;99.90;;;;;;4984486;28;20027;-57
2021/08/24 04:13:42;;;;;;;5.07;2.67;;;12.20;99.90;;;;;;4974797;28;20039;-56
2021/08/24 04:16:10;;;;;;;6.70;2.78;;;12.20;99.90;;;;;;4999412;28;20133;-56
2021/08/24 04:18:36;;;;;;;4.05;2.72;;;12.20;99.90;;;;;;4988833;28;20038;-57
2021/08/24 04:21:02;;;;;;;8.82;2.92;;;12.20;99.90;;;;;;4991091;28;20026;-56
2021/08/24 04:23:28;;;;;;;7.53;2.90;;;12.20;99.90;;;;;;4980956;28;20436;-56
2021/08/24 04:25:53;;;;;;;6.38;3.28;;;12.10;99.90;;;;;;4990388;28;20054;-54
2021/08/24 04:28:19;;;;;;;5.10;2.78;;;12.20;99.90;;;;;;4985097;28;20059;-57
2021/08/24 04:30:44;;;;;;;7.65;3.30;;;12.10;99.90;;;;;;4989390;28;20034;-58
2021/08/24 04:33:10;;;;;;;5.95;2.47;;;12.10;99.90;;;;;;4987968;28;20018;-56
2021/08/24 04:35:35;;;;;;;6.80;2.63;;;12.00;99.90;;;;;;4981548;28;20535;-57
2021/08/24 04:38:01;;;;;;;6.72;3.05;;;12.00;99.90;;;;;;4979670;28;20039;-57
2021/08/24 04:40:30;;;;;;;6.88;2.92;;;12.00;99.90;;;;;;4987891;28;20117;-57
2021/08/24 04:42:55;;;;;;;6.57;3.70;;;12.00;99.90;;;;;;4985771;28;20018;-56
2021/08/24 04:45:21;;;;;;;9.52;3.03;;;12.00;99.90;;;;;;4981377;28;20396;-56
2021/08/24 04:47:47;;;;;;;5.68;2.67;;;12.00;99.90;;;;;;4988161;28;20122;-56
2021/08/24 04:50:12;;;;;;;4.22;2.60;;;12.00;99.90;;;;;;4987407;28;20038;-55
2021/08/24 04:52:38;;;;;;;4.13;3.20;;;12.00;99.90;;;;;;4991885;28;20023;-56
2021/08/24 04:55:04;;;;;;;6.05;3.20;;;12.00;99.90;;;;;;4983321;28;20034;-56
2021/08/24 04:57:29;;;;;;;13.13;3.10;;;12.00;99.90;;;;;;4983807;28;20507;-57
2021/08/24 04:59:55;;;;;;;4.40;2.55;;;12.00;99.90;;;;;;4980059;28;20052;-57
2021/08/24 05:02:21;;;;;;;8.20;3.08;;;12.10;99.90;;;;;;4987284;28;20026;-56
2021/08/24 05:04:46;;;;;;;5.45;2.92;;;12.10;99.90;;;;;;4992144;28;20023;-57
2021/08/24 05:07:12;;;;;;;5.18;2.92;;;12.20;99.90;;;;;;4981916;28;20030;-57
2021/08/24 05:09:38;;;;;;;5.63;2.75;;;12.30;99.90;;;;;;4987481;28;20053;-57
2021/08/24 05:12:04;;;;;;;5.43;2.85;;;12.40;99.90;;;;;;4986529;28;20028;-57
2021/08/24 05:14:29;;;;;;;6.78;2.58;;;12.40;99.90;;;;;;4978327;28;20115;-53
2021/08/24 05:16:57;;;;;;;8.35;3.03;;;12.50;99.90;;;;;;4986068;28;20484;-57
2021/08/24 05:19:22;;;;;;;9.00;2.50;;;12.50;99.90;;;;;;4988676;28;20023;-57
2021/08/24 05:21:48;;;;;;;4.15;2.58;;;12.60;99.90;;;;;;4981956;28;20410;-57
2021/08/24 05:24:14;;;;;;;4.78;2.40;;;12.60;99.90;;;;;;4993113;28;20053;-54
2021/08/24 05:26:39;;;;;;;4.03;2.38;;;12.70;99.90;;;;;;4991420;28;20034;-57
2021/08/24 05:29:05;;;;;;;4.22;2.88;;;12.80;99.90;;;;;;4976556;28;20138;-57
2021/08/24 05:31:30;;;;;;;6.32;2.40;;;13.00;99.90;;;;;;4990747;28;20022;-55
2021/08/24 05:33:56;;;;;;;4.78;2.75;;;13.10;99.90;;;;;;4994558;28;20054;-55
2021/08/24 05:36:21;;;;;;;3.63;2.50;;;13.30;99.90;;;;;;4985386;28;20046;-57
2021/08/24 05:38:47;;;;;;;4.10;2.88;;;13.60;99.90;;;;;;4981724;28;20110;-55
2021/08/24 05:41:13;;;;;;;10.57;2.70;;;14.00;99.90;;;;;;4988062;28;20451;-58
2021/08/24 05:43:39;;;;;;;9.93;2.75;;;14.30;99.90;;;;;;4986759;28;20023;-56
2021/08/24 05:46:07;;;;;;;9.02;2.80;;;14.50;99.90;;;;;;4988930;28;20030;-58
2021/08/24 05:48:34;;;;;;;4.93;2.63;;;14.60;99.90;;;;;;4986056;28;20358;-59
2021/08/24 05:51:00;;;;;;;6.53;2.53;;;14.90;99.90;;;;;;4987415;28;20030;-56
2021/08/24 05:53:26;;;;;;;8.65;2.72;;;15.20;99.90;;;;;;4984065;28;20407;-58
2021/08/24 05:55:52;;;;;;;3.60;2.10;;;15.50;99.90;;;;;;4984870;28;20034;-57
2021/08/24 05:58:18;;;;;;;8.65;2.40;;;15.70;99.90;;;;;;4993821;28;20034;-57
2021/08/24 06:00:44;;;;;;;5.60;2.42;;;15.80;99.90;;;;;;4989181;28;20058;-59
2021/08/24 06:03:09;;;;;;;3.22;2.30;;;16.00;99.90;;;;;;4989317;28;20060;-58
2021/08/24 06:05:40;;;;;;;4.78;2.30;;;16.20;99.90;;;;;;4981754;28;20045;-56
2021/08/24 06:08:06;;;;;;;10.00;2.72;;;16.70;99.90;;;;;;4986238;28;20046;-56
2021/08/24 06:10:38;;;;;;;4.03;2.17;;;17.40;99.90;;;;;;4980685;28;20054;-58
2021/08/24 06:13:05;;;;;;;3.58;2.15;;;17.70;99.90;;;;;;4979902;28;20109;-58
2021/08/24 06:15:31;;;;;;;6.15;2.10;;;18.30;99.90;;;;;;4970361;28;20466;-58
2021/08/24 06:17:56;;;;;;;6.82;2.10;;;18.80;99.90;;;;;;4995469;28;20084;-59
2021/08/24 06:20:22;;;;;;;3.40;1.80;;;19.10;99.90;;;;;;4990690;28;20034;-57
2021/08/24 06:22:48;;;;;;;7.28;1.95;;;19.50;99.90;;;;;;5002945;28;20093;-59
2021/08/24 06:25:15;;;;;;;4.93;2.22;;;19.90;99.90;;;;;;4988809;28;20034;-56
2021/08/24 06:27:41;;;;;;;7.22;2.25;;;21.00;99.60;;;;;;4989876;28;20018;-55
2021/08/24 06:30:07;;;;;;;4.07;1.85;;;21.80;98.30;;;;;;4990271;28;20038;-58
2021/08/24 06:32:36;;;;;;;5.20;1.83;;;22.40;96.40;;;;;;4995959;28;20034;-58
2021/08/24 06:35:03;;;;;;;4.47;2.33;;;22.60;95.60;;;;;;4989040;28;20061;-57
2021/08/24 06:37:29;;;;;;;3.92;1.95;;;23.30;94.80;;;;;;4989107;28;20177;-56
2021/08/24 06:39:55;;;;;;;5.93;2.20;;;24.00;93.90;;;;;;4979632;28;20114;-60
2021/08/24 06:42:20;;;;;;;6.05;1.70;;;24.40;92.70;;;;;;4980748;28;20072;-59
2021/08/24 06:44:46;;;;;;;4.60;2.08;;;24.80;91.50;;;;;;4984698;28;20022;-58
2021/08/24 06:47:11;;;;;;;3.40;2.20;;;25.30;90.80;;;;;;4986882;28;20034;-59
2021/08/24 06:49:37;;;;;;;4.03;1.90;;;25.20;90.70;;;;;;4993618;28;20034;-58
2021/08/24 06:52:05;;;;;;;3.95;2.13;;;25.00;91.60;;;;;;4988817;28;20030;-60
2021/08/24 06:54:31;;;;;;;4.55;2.55;;;24.70;92.00;;;;;;4991238;28;20033;-58
2021/08/24 06:56:57;;;;;;;3.70;2.00;;;25.60;90.70;;;;;;4990319;28;20022;-56
2021/08/24 06:59:23;;;;;;;8.65;2.28;;;25.70;90.20;;;;;;4987412;28;20030;-59
2021/08/24 07:01:49;;;;;;;6.32;2.40;;;25.80;91.10;;;;;;4978340;28;20027;-59
2021/08/24 07:04:15;;;;;;;4.05;2.38;;;26.00;89.30;;;;;;4982651;28;20030;-59
2021/08/24 07:06:45;;;;;;;5.05;1.73;;;25.80;89.80;;;;;;4987692;28;20377;-58
2021/08/24 07:09:10;;;;;;;4.28;2.28;;;26.20;86.50;;;;;;4984773;28;20026;-58
2021/08/24 07:11:36;;;;;;;5.90;2.05;;;26.70;85.00;;;;;;4984771;28;20035;-59
2021/08/24 07:14:02;;;;;;;2.53;1.95;;;27.00;82.50;;;;;;4989191;28;20031;-57
2021/08/24 07:16:27;;;;;;;5.63;1.90;;;27.10;81.40;;;;;;4979170;28;20576;-59
2021/08/24 07:18:55;;;;;;;3.67;1.77;;;26.80;81.90;;;;;;4987990;28;20101;-60
2021/08/24 07:21:21;;;;;;;4.70;2.10;;;26.90;82.20;;;;;;4987323;28;20037;-59
2021/08/24 07:23:47;;;;;;;3.92;1.70;;;26.40;83.50;;;;;;4993742;28;20491;-59
2021/08/24 07:26:13;;;;;;;4.05;1.98;;;26.90;81.10;;;;;;4994118;28;20085;-59
2021/08/24 07:28:39;;;;;;;5.05;2.17;;;26.80;80.80;;;;;;4987420;28;20084;-59
2021/08/24 07:31:06;;;;;;;6.05;1.90;;;27.00;81.40;;;;;;4985641;28;20036;-58
2021/08/24 07:33:32;;;;;;;4.50;1.83;;;26.80;78.60;;;;;;4991756;28;20030;-59
2021/08/24 07:35:58;;;;;;;2.72;1.73;;;26.80;78.60;;;;;;4990523;28;20042;-60
2021/08/24 07:38:24;;;;;;;5.03;1.85;;;26.30;80.50;;;;;;4991932;28;20484;-57
2021/08/24 07:40:50;;;;;;;5.43;2.30;;;26.60;78.40;;;;;;4990512;28;20053;-59
2021/08/24 07:43:16;;;;;;;7.97;2.40;;;27.30;79.20;;;;;;4992969;28;20625;-58
2021/08/24 07:45:42;;;;;;;6.78;2.00;;;27.60;78.90;;;;;;4984344;28;20026;-56
2021/08/24 07:48:08;;;;;;;5.15;2.10;;;27.80;77.70;;;;;;4988064;28;20026;-59
2021/08/24 07:50:34;;;;;;;5.20;1.90;;;27.30;77.30;;;;;;4982784;28;20023;-58
2021/08/24 07:53:00;;;;;;;3.35;2.10;;;27.90;76.60;;;;;;4981836;28;20033;-59
2021/08/24 07:55:25;;;;;;;5.55;1.63;;;27.30;77.40;;;;;;4982655;28;20035;-58
2021/08/24 07:57:51;;;;;;;2.65;2.00;;;27.60;75.60;;;;;;4989086;28;20507;-58
2021/08/24 08:00:17;;;;;;;14.00;1.85;;;26.40;76.50;;;;;;4981866;28;20027;-57
2021/08/24 08:02:42;;;;;;;5.82;1.77;;;27.40;76.40;;;;;;4986676;28;20084;-58
2021/08/24 08:05:09;;;;;;;4.82;2.05;;;27.50;74.30;;;;;;4982680;28;20026;-59
2021/08/24 08:07:35;;;;;;;6.72;2.42;;;27.50;75.00;;;;;;4980854;28;20027;-59
2021/08/24 08:10:00;;;;;;;2.55;1.85;;;26.80;74.80;;;;;;4982356;28;20036;-59
2021/08/24 08:12:26;;;;;;;7.70;2.53;;;27.90;70.50;;;;;;4987608;28;20049;-59
2021/08/24 08:14:51;;;;;;;3.63;2.25;;;27.60;71.30;;;;;;4995026;28;20030;-59
2021/08/24 08:17:17;;;;;;;4.25;2.20;;;28.20;68.30;;;;;;4978828;28;20818;-60
2021/08/24 08:19:43;;;;;;;3.17;1.85;;;27.50;70.80;;;;;;4978879;28;20106;-55
2021/08/24 08:22:09;;;;;;;2.75;1.73;;;27.70;70.20;;;;;;4992109;28;20054;-58
2021/08/24 08:24:36;;;;;;;6.15;2.17;;;27.90;68.10;;;;;;4993229;28;20033;-57
2021/08/24 08:27:02;;;;;;;5.45;1.77;;;27.50;65.90;;;;;;4983575;28;20033;-58
2021/08/24 08:29:27;;;;;;;3.50;1.98;;;27.60;68.70;;;;;;4985113;28;20406;-58
2021/08/24 08:31:54;;;;;;;3.13;1.90;;;27.70;65.80;;;;;;4988859;28;20469;-58
2021/08/24 08:34:19;;;;;;;4.10;1.77;;;28.00;65.10;;;;;;4985949;28;20138;-59
2021/08/24 08:36:48;;;;;;;3.83;2.05;;;27.60;63.80;;;;;;4991602;28;20113;-58
2021/08/24 08:39:14;;;;;;;4.45;2.10;;;27.50;65.00;;;;;;4988269;28;20489;-58
2021/08/24 08:42:07;;;;;;;2.78;1.90;;;27.90;63.70;;;;;;4988465;28;20018;-56
2021/08/24 08:44:54;;;;;;;5.45;2.15;;;28.00;62.40;;;;;;4987018;28;20023;-59
2021/08/24 08:47:38;;;;;;;2.95;1.90;;;27.80;63.00;;;;;;4986015;28;20058;-58
2021/08/24 08:50:13;;;;;;;3.83;2.42;;;27.50;61.70;;;;;;4986111;28;20041;-56
2021/08/24 08:52:50;;;;;;;3.88;1.85;;;26.90;63.30;;;;;;4983900;28;20026;-58
2021/08/24 08:55:41;;;;;;;5.50;2.25;;;27.10;62.50;;;;;;4985468;28;20042;-59
2021/08/24 08:58:36;;;;;;;2.50;2.05;;;27.40;64.80;;;;;;4986168;28;20133;-58
2021/08/24 09:01:10;;;;;;;3.28;2.17;;;27.00;64.10;;;;;;4983297;28;20049;-59
2021/08/24 09:03:46;;;;;;;3.28;2.15;;;27.50;59.90;;;;;;4987483;28;20022;-59
2021/08/24 09:06:15;;;;;;;5.13;1.92;;;27.40;60.30;;;;;;4987131;28;20559;-60
2021/08/24 09:08:41;;;;;;;3.55;2.30;;;27.40;60.10;;;;;;4988824;28;20411;-59
2021/08/24 09:11:07;;;;;;;3.03;2.45;;;27.30;60.60;;;;;;4988427;28;20041;-57
2021/08/24 09:13:54;;;;;;;7.43;2.63;;;27.60;60.90;;;;;;4987107;28;20042;-58
2021/08/24 09:17:00;;;;;;;4.72;2.13;;;27.80;59.50;;;;;;4986083;28;20196;-59
2021/08/24 09:19:39;;;;;;;4.57;2.20;;;27.40;59.00;;;;;;4992866;28;20092;-53
2021/08/24 09:22:06;;;;;;;3.20;2.15;;;27.10;59.20;;;;;;5014244;28;20026;-57
2021/08/24 09:24:34;;;;;;;5.07;2.33;;;27.80;58.90;;;;;;5001140;28;20029;-58
2021/08/24 09:27:00;;;;;;;4.10;2.30;;;27.30;59.30;;;;;;5013760;28;20084;-58
2021/08/24 09:29:33;;;;;;;2.80;2.05;;;27.50;56.70;;;;;;5010503;28;20527;-57
2021/08/24 09:32:04;;;;;;;3.22;2.25;;;27.20;58.70;;;;;;5010702;28;20663;-59
2021/08/24 09:34:35;;;;;;;7.05;2.53;;;26.90;58.20;;;;;;5005855;28;20030;-54
2021/08/24 09:37:00;;;;;;;5.25;2.55;;;27.00;56.00;;;;;;5000585;28;20022;-60
2021/08/24 09:39:48;;;;;;;3.95;1.80;;;26.80;58.30;;;;;;4994118;28;20098;-59
2021/08/24 09:42:14;;;;;;;3.35;2.38;;;26.70;60.50;;;;;;5003534;28;20026;-59
2021/08/24 09:44:40;;;;;;;2.60;2.05;;;26.30;58.90;;;;;;5001009;28;20029;-57
2021/08/24 09:47:16;;;;;;;5.50;2.75;;;26.70;57.00;;;;;;5001930;28;20446;-59
2021/08/24 09:49:42;;;;;;;3.20;2.08;;;26.60;58.70;;;;;;5009598;28;20486;-56
2021/08/24 09:52:23;;;;;;;5.03;2.10;;;26.60;58.60;;;;;;4999225;28;20402;-59
2021/08/24 09:54:48;;;;;;;2.67;1.90;;;25.80;57.90;;;;;;5008276;28;20034;-58
2021/08/24 09:57:24;;;;;;;3.55;2.20;;;26.10;58.00;;;;;;5007396;28;20061;-57
2021/08/24 10:00:03;;;;;;;4.70;2.65;;;26.20;58.60;;;;;;5001575;28;20511;-58
2021/08/24 10:02:38;;;;;;;4.13;2.65;;;25.80;59.30;;;;;;5002738;28;20044;-57
2021/08/24 10:05:09;;;;;;;3.38;2.30;;;25.20;61.80;;;;;;5011217;28;20080;-57
2021/08/24 10:07:41;;;;;;;5.88;2.50;;;24.80;60.00;;;;;;5012124;28;20692;-59
2021/08/24 10:10:35;;;;;;;4.35;2.67;;;24.10;62.20;;;;;;5011306;28;20052;-56
2021/08/24 10:13:22;;;;;;;5.68;2.78;;;24.00;65.00;;;;;;5004029;28;20049;-57
2021/08/24 10:15:49;;;;;;;4.65;2.60;;;23.90;63.80;;;;;;5007640;28;20053;-57
2021/08/24 10:18:23;;;;;;;3.78;2.22;;;23.90;64.20;;;;;;4975286;28;20046;-56
2021/08/24 10:20:53;;;;;;;;;;;23.90;63.50;;;;;;4989555;28;20483;-56
2021/08/24 10:23:28;;;;;;;4.20;2.38;;;23.70;64.70;;;;;;4983533;28;19917;-57
2021/08/24 10:25:57;;;;;;;4.40;2.75;;;23.80;68.30;;;;;;4986084;28;20026;-58
2021/08/24 10:28:27;;;;;;;5.53;3.20;;;23.40;65.70;;;;;;4984851;28;20492;-53
2021/08/24 10:30:57;;;;;;;7.15;3.15;;;23.40;64.50;;;;;;4985392;28;20121;-57
2021/08/24 10:33:38;;;;;;;5.28;2.80;;;23.20;64.10;;;;;;4976997;28;20043;-58
2021/08/24 10:36:26;;;;;;;7.38;3.33;;;23.00;65.30;;;;;;4980765;28;20123;-57
2021/08/24 10:39:17;;;;;;;6.68;3.05;;;22.60;67.50;;;;;;4988844;28;20033;-56
2021/08/24 10:42:08;;;;;;;4.97;2.95;;;22.60;67.30;;;;;;4994621;28;20050;-53
2021/08/24 10:44:55;;;;;;;4.85;2.95;;;22.60;70.20;;;;;;4987732;28;20038;-56
2021/08/24 10:47:29;;;;;;;5.80;2.88;;;22.60;67.60;;;;;;4990383;28;20404;-58
2021/08/24 10:49:58;;;;;;;6.53;3.20;;;22.40;68.20;;;;;;4987218;28;20030;-57
2021/08/24 10:52:53;;;;;;;4.45;2.67;;;22.40;69.10;;;;;;4984976;28;20033;-56
2021/08/24 10:55:44;;;;;;;5.63;2.88;;;22.50;68.60;;;;;;4987728;28;20030;-57
2021/08/24 10:58:19;;;;;;;6.72;4.38;;;22.50;69.50;;;;;;4987511;28;20097;-55
2021/08/24 11:01:00;;;;;;;8.43;3.67;;;22.50;68.10;;;;;;4987938;28;20026;-56
2021/08/24 11:03:48;;;;;;;4.32;2.90;;;22.40;69.10;;;;;;4986624;28;20020;-56
2021/08/24 11:06:35;;;;;;;5.65;2.88;;;22.50;70.90;;;;;;4987158;28;20158;-54
2021/08/24 11:09:07;;;;;;;4.93;3.00;;;22.70;70.20;;;;;;4986946;28;20030;-51
2021/08/24 11:11:37;;;;;;;7.47;3.00;;;22.70;69.10;;;;;;4988754;28;20022;-57
2021/08/24 11:14:16;;;;;;;5.43;2.92;;;22.70;69.50;;;;;;4985373;28;20023;-54
2021/08/24 11:17:15;;;;;;;4.63;2.80;;;22.80;69.50;;;;;;4990998;28;20041;-57
2021/08/24 11:20:20;;;;;;;5.82;3.25;;;23.00;69.90;;;;;;4993620;28;20030;-53
2021/08/24 11:23:05;;;;;;;5.32;2.90;;;23.10;69.30;;;;;;4993907;28;20503;-56
2021/08/24 11:25:45;;;;;;;4.50;2.95;;;23.00;69.50;;;;;;4989723;28;20172;-59
2021/08/24 11:28:52;;;;;;;6.28;2.70;;;22.90;70.40;;;;;;4991978;28;20773;-57
2021/08/24 11:31:27;;;;;;;7.15;2.97;;;22.80;67.10;;;;;;4988387;28;20244;-59
2021/08/24 11:34:21;;;;;;;4.70;2.92;;;22.60;67.90;;;;;;4991298;28;20027;-56
2021/08/24 11:36:53;;;;;;;5.68;2.95;;;22.40;69.10;;;;;;4993964;28;20061;-56
2021/08/24 11:39:26;;;;;;;8.32;2.70;;;22.30;70.80;;;;;;4997106;28;20466;-56
2021/08/24 11:41:59;;;;;;;7.18;3.17;;;22.50;73.50;;;;;;4995087;28;20031;-57
2021/08/24 11:44:40;;;;;;;5.53;3.10;;;22.50;72.90;;;;;;4993045;28;20068;-56
2021/08/24 11:47:11;;;;;;;5.28;2.85;;;22.80;71.80;;;;;;4993446;28;20109;-55
2021/08/24 11:49:48;;;;;;;8.90;2.90;;;22.70;70.00;;;;;;4986865;28;20058;-56
2021/08/24 11:52:31;;;;;;;6.03;3.17;;;22.80;70.50;;;;;;4979673;28;20065;-55
2021/08/24 11:55:24;;;;;;;7.47;2.97;;;22.90;70.20;;;;;;4984359;28;20376;-55
2021/08/24 11:58:09;;;;;;;8.02;3.20;;;23.00;67.70;;;;;;4991582;28;20030;-58
2021/08/24 12:00:35;;;;;;;8.27;3.55;;;23.10;69.30;;;;;;4987679;28;20091;-56
2021/08/24 12:03:13;;;;;;;4.55;3.03;;;23.30;69.20;;;;;;4990290;28;20034;-55
2021/08/24 12:05:47;;;;;;;5.50;2.85;;;23.30;68.40;;;;;;4988743;28;20116;-55
2021/08/24 12:08:26;;;;;;;4.47;2.90;;;23.40;69.40;;;;;;4982687;28;20030;-55
2021/08/24 12:10:51;;;;;;;4.20;2.80;;;23.60;69.30;;;;;;4982096;28;20033;-55
2021/08/24 12:13:31;;;;;;;5.60;2.47;;;23.60;69.50;;;;;;4984808;28;20403;-56
2021/08/24 12:16:23;;;;;;;6.13;2.92;;;23.20;69.40;;;;;;4988525;28;20109;-57
2021/08/24 12:18:51;;;;;;;6.57;2.67;;;23.20;72.80;;;;;;4980290;28;20593;-56
2021/08/24 12:21:43;;;;;;;5.53;2.58;;;23.10;71.70;;;;;;4979215;28;20050;-56
2021/08/24 12:24:24;;;;;;;5.07;2.63;;;22.90;71.40;;;;;;4976297;28;20037;-56
2021/08/24 12:26:57;;;;;;;6.35;2.40;;;22.50;73.50;;;;;;4980523;28;20050;-56
2021/08/24 12:29:35;;;;;;;6.30;3.05;;;22.30;74.70;;;;;;4989223;28;20037;-57
2021/08/24 12:32:09;;;;;;;6.20;3.13;;;22.20;71.90;;;;;;4980261;28;20033;-57
2021/08/24 12:34:35;;;;;;;6.10;3.58;;;22.10;73.40;;;;;;4983120;28;20027;-56
2021/08/24 12:37:18;;;;;;;4.45;2.50;;;22.10;71.20;;;;;;5002908;23;20057;-59
2021/08/24 12:39:45;;;;;;;5.85;2.92;;;22.30;71.70;;;;;;5007280;28;20049;-57
2021/08/24 12:42:24;;;;;;;13.13;3.20;;;22.20;72.90;;;;;;4975986;28;20710;-59
2021/08/24 12:44:58;;;;;;;4.43;2.83;;;22.30;74.60;;;;;;5005493;28;20430;-58
2021/08/24 12:47:30;;;;;;;5.78;3.25;;;22.70;76.70;;;;;;5001797;28;20511;-58
2021/08/24 12:50:08;;;;;;;4.78;2.58;;;22.60;74.80;;;;;;4992124;28;20403;-58
2021/08/24 12:52:39;;;;;;;5.13;2.70;;;22.50;74.20;;;;;;4988746;28;20101;-58
2021/08/24 12:55:08;;;;;;;6.43;3.30;;;22.40;72.90;;;;;;4988438;28;20022;-59
2021/08/24 12:57:42;;;;;;;5.00;2.97;;;22.40;72.80;;;;;;4989261;28;20561;-57
2021/08/24 13:00:28;;;;;;;4.95;2.90;;;22.50;74.50;;;;;;4967657;28;20054;-58
2021/08/24 13:02:57;;;;;;;5.97;2.78;;;22.60;71.80;;;;;;4982967;28;20030;-57
2021/08/24 13:05:30;;;;;;;5.63;3.42;;;22.60;74.10;;;;;;4979979;28;20030;-59
2021/08/24 13:08:20;;;;;;;5.20;3.05;;;22.50;72.20;;;;;;4989252;28;20092;-59
2021/08/24 13:10:48;;;;;;;6.18;3.38;;;22.50;72.20;;;;;;4986616;28;20419;-57